sensor_id;sensor_type;location;lat;lon;timestamp;P1;durP1;ratioP1;P2;durP2;ratioP2
71202;SDS011;58929;47.490;19.090;2023-04-24T00:01:07;14.43;;;7.47;;
71202;SDS011;58929;47.490;19.090;2023-04-24T00:03:35;10.38;;;6.85;;
71202;SDS011;58929;47.490;19.090;2023-04-24T00:06:05;9.63;;;6.50;;
71202;SDS011;58929;47.490;19.090;2023-04-24T00:08:34;8.00;;;5.70;;
71202;SDS011;58929;47.490;19.090;2023-04-24T00:11:02;9.35;;;5.90;;
71202;SDS011;58929;47.490;19.090;2023-04-24T00:13:30;13.15;;;6.78;;
71202;SDS011;58929;47.490;19.090;2023-04-24T00:15:58;10.88;;;6.40;;
71202;SDS011;58929;47.490;19.090;2023-04-24T00:18:28;11.50;;;6.70;;
71202;SDS011;58929;47.490;19.090;2023-04-24T00:20:56;11.98;;;6.43;;
71202;SDS011;58929;47.490;19.090;2023-04-24T00:23:23;12.05;;;7.15;;
71202;SDS011;58929;47.490;19.090;2023-04-24T00:25:51;12.15;;;7.05;;
71202;SDS011;58929;47.490;19.090;2023-04-24T00:28:19;10.45;;;6.68;;
71202;SDS011;58929;47.490;19.090;2023-04-24T00:30:47;10.68;;;6.68;;
71202;SDS011;58929;47.490;19.090;2023-04-24T00:33:15;12.77;;;6.97;;
71202;SDS011;58929;47.490;19.090;2023-04-24T00:35:44;14.13;;;7.45;;
71202;SDS011;58929;47.490;19.090;2023-04-24T00:38:12;15.90;;;7.63;;
71202;SDS011;58929;47.490;19.090;2023-04-24T00:40:41;15.23;;;7.63;;
71202;SDS011;58929;47.490;19.090;2023-04-24T00:43:09;14.02;;;7.80;;
71202;SDS011;58929;47.490;19.090;2023-04-24T00:45:37;12.05;;;7.00;;
71202;SDS011;58929;47.490;19.090;2023-04-24T00:48:05;11.82;;;7.13;;
71202;SDS011;58929;47.490;19.090;2023-04-24T00:50:33;11.20;;;7.32;;
71202;SDS011;58929;47.490;19.090;2023-04-24T00:53:04;16.52;;;7.88;;
71202;SDS011;58929;47.490;19.090;2023-04-24T00:55:32;20.63;;;8.52;;
71202;SDS011;58929;47.490;19.090;2023-04-24T00:58:00;12.85;;;7.60;;
71202;SDS011;58929;47.490;19.090;2023-04-24T01:00:28;15.68;;;8.18;;
71202;SDS011;58929;47.490;19.090;2023-04-24T01:02:57;13.50;;;7.90;;
71202;SDS011;58929;47.490;19.090;2023-04-24T01:05:25;14.82;;;9.07;;
71202;SDS011;58929;47.490;19.090;2023-04-24T01:07:54;13.07;;;7.93;;
71202;SDS011;58929;47.490;19.090;2023-04-24T01:10:23;15.25;;;8.68;;
71202;SDS011;58929;47.490;19.090;2023-04-24T01:12:52;14.25;;;8.05;;
71202;SDS011;58929;47.490;19.090;2023-04-24T01:15:21;15.85;;;7.78;;
71202;SDS011;58929;47.490;19.090;2023-04-24T01:17:49;18.95;;;8.43;;
71202;SDS011;58929;47.490;19.090;2023-04-24T01:20:17;18.05;;;8.38;;
71202;SDS011;58929;47.490;19.090;2023-04-24T01:22:47;13.85;;;9.02;;
71202;SDS011;58929;47.490;19.090;2023-04-24T01:25:15;23.58;;;9.35;;
71202;SDS011;58929;47.490;19.090;2023-04-24T01:27:43;14.60;;;8.98;;
71202;SDS011;58929;47.490;19.090;2023-04-24T01:30:12;15.60;;;8.55;;
71202;SDS011;58929;47.490;19.090;2023-04-24T01:32:40;13.95;;;8.73;;
71202;SDS011;58929;47.490;19.090;2023-04-24T01:35:10;17.33;;;8.65;;
71202;SDS011;58929;47.490;19.090;2023-04-24T01:37:38;17.55;;;9.15;;
71202;SDS011;58929;47.490;19.090;2023-04-24T01:40:09;17.48;;;9.55;;
71202;SDS011;58929;47.490;19.090;2023-04-24T01:42:37;19.58;;;9.88;;
71202;SDS011;58929;47.490;19.090;2023-04-24T01:45:07;20.10;;;10.05;;
71202;SDS011;58929;47.490;19.090;2023-04-24T01:47:37;15.98;;;9.60;;
71202;SDS011;58929;47.490;19.090;2023-04-24T01:50:05;13.07;;;8.25;;
71202;SDS011;58929;47.490;19.090;2023-04-24T01:52:33;11.98;;;7.40;;
71202;SDS011;58929;47.490;19.090;2023-04-24T01:55:04;12.05;;;8.23;;
71202;SDS011;58929;47.490;19.090;2023-04-24T01:57:34;25.38;;;9.60;;
71202;SDS011;58929;47.490;19.090;2023-04-24T02:00:03;16.77;;;9.30;;
71202;SDS011;58929;47.490;19.090;2023-04-24T02:02:38;16.90;;;9.50;;
71202;SDS011;58929;47.490;19.090;2023-04-24T02:05:07;18.23;;;9.32;;
71202;SDS011;58929;47.490;19.090;2023-04-24T02:07:35;16.00;;;8.90;;
71202;SDS011;58929;47.490;19.090;2023-04-24T02:10:03;14.35;;;7.82;;
71202;SDS011;58929;47.490;19.090;2023-04-24T02:12:31;14.75;;;9.05;;
71202;SDS011;58929;47.490;19.090;2023-04-24T02:15:01;16.80;;;8.75;;
71202;SDS011;58929;47.490;19.090;2023-04-24T02:17:29;13.88;;;8.75;;
71202;SDS011;58929;47.490;19.090;2023-04-24T02:19:57;14.82;;;9.07;;
71202;SDS011;58929;47.490;19.090;2023-04-24T02:22:27;11.57;;;8.85;;
71202;SDS011;58929;47.490;19.090;2023-04-24T02:24:55;14.35;;;8.07;;
71202;SDS011;58929;47.490;19.090;2023-04-24T02:27:22;14.82;;;8.00;;
71202;SDS011;58929;47.490;19.090;2023-04-24T02:29:51;15.90;;;7.70;;
71202;SDS011;58929;47.490;19.090;2023-04-24T02:32:20;15.68;;;8.10;;
71202;SDS011;58929;47.490;19.090;2023-04-24T02:34:48;13.75;;;7.75;;
71202;SDS011;58929;47.490;19.090;2023-04-24T02:37:16;13.90;;;8.00;;
71202;SDS011;58929;47.490;19.090;2023-04-24T02:39:44;13.32;;;8.15;;
71202;SDS011;58929;47.490;19.090;2023-04-24T02:42:12;18.27;;;9.05;;
71202;SDS011;58929;47.490;19.090;2023-04-24T02:44:40;12.18;;;8.23;;
71202;SDS011;58929;47.490;19.090;2023-04-24T02:47:08;13.02;;;8.18;;
71202;SDS011;58929;47.490;19.090;2023-04-24T02:49:37;11.93;;;8.30;;
71202;SDS011;58929;47.490;19.090;2023-04-24T02:52:05;14.82;;;7.88;;
71202;SDS011;58929;47.490;19.090;2023-04-24T02:54:33;12.48;;;8.07;;
71202;SDS011;58929;47.490;19.090;2023-04-24T02:57:01;15.70;;;7.88;;
71202;SDS011;58929;47.490;19.090;2023-04-24T02:59:29;17.45;;;7.97;;
71202;SDS011;58929;47.490;19.090;2023-04-24T03:01:57;11.20;;;7.65;;
71202;SDS011;58929;47.490;19.090;2023-04-24T03:04:26;11.82;;;8.60;;
71202;SDS011;58929;47.490;19.090;2023-04-24T03:06:55;17.27;;;9.30;;
71202;SDS011;58929;47.490;19.090;2023-04-24T03:09:23;12.15;;;8.30;;
71202;SDS011;58929;47.490;19.090;2023-04-24T03:11:52;14.50;;;8.95;;
71202;SDS011;58929;47.490;19.090;2023-04-24T03:14:20;13.95;;;9.05;;
71202;SDS011;58929;47.490;19.090;2023-04-24T03:16:48;14.80;;;9.02;;
71202;SDS011;58929;47.490;19.090;2023-04-24T03:19:16;15.52;;;8.98;;
71202;SDS011;58929;47.490;19.090;2023-04-24T03:21:57;16.63;;;9.13;;
71202;SDS011;58929;47.490;19.090;2023-04-24T03:24:25;19.88;;;8.50;;
71202;SDS011;58929;47.490;19.090;2023-04-24T03:26:55;18.70;;;9.45;;
71202;SDS011;58929;47.490;19.090;2023-04-24T03:29:49;19.63;;;9.38;;
71202;SDS011;58929;47.490;19.090;2023-04-24T03:32:26;11.43;;;7.88;;
71202;SDS011;58929;47.490;19.090;2023-04-24T03:34:55;10.68;;;8.52;;
71202;SDS011;58929;47.490;19.090;2023-04-24T03:37:25;12.43;;;7.97;;
71202;SDS011;58929;47.490;19.090;2023-04-24T03:40:06;11.82;;;8.73;;
71202;SDS011;58929;47.490;19.090;2023-04-24T03:42:36;12.52;;;8.50;;
71202;SDS011;58929;47.490;19.090;2023-04-24T03:45:05;13.00;;;9.65;;
71202;SDS011;58929;47.490;19.090;2023-04-24T03:47:36;17.40;;;9.98;;
71202;SDS011;58929;47.490;19.090;2023-04-24T03:50:05;13.52;;;9.23;;
71202;SDS011;58929;47.490;19.090;2023-04-24T03:52:35;13.80;;;8.55;;
71202;SDS011;58929;47.490;19.090;2023-04-24T03:55:03;18.98;;;9.60;;
71202;SDS011;58929;47.490;19.090;2023-04-24T03:57:38;15.82;;;8.85;;
71202;SDS011;58929;47.490;19.090;2023-04-24T04:00:16;12.15;;;9.00;;
71202;SDS011;58929;47.490;19.090;2023-04-24T04:02:51;12.27;;;9.15;;
71202;SDS011;58929;47.490;19.090;2023-04-24T04:05:20;19.17;;;9.98;;
71202;SDS011;58929;47.490;19.090;2023-04-24T04:07:49;15.20;;;9.20;;
71202;SDS011;58929;47.490;19.090;2023-04-24T04:10:17;12.90;;;9.50;;
71202;SDS011;58929;47.490;19.090;2023-04-24T04:12:45;11.32;;;8.57;;
71202;SDS011;58929;47.490;19.090;2023-04-24T04:15:13;17.90;;;9.80;;
71202;SDS011;58929;47.490;19.090;2023-04-24T04:17:41;12.25;;;9.75;;
71202;SDS011;58929;47.490;19.090;2023-04-24T04:20:10;16.75;;;9.45;;
71202;SDS011;58929;47.490;19.090;2023-04-24T04:22:39;16.85;;;10.60;;
71202;SDS011;58929;47.490;19.090;2023-04-24T04:25:15;15.98;;;10.40;;
71202;SDS011;58929;47.490;19.090;2023-04-24T04:27:45;12.25;;;9.50;;
71202;SDS011;58929;47.490;19.090;2023-04-24T04:30:14;13.60;;;10.50;;
71202;SDS011;58929;47.490;19.090;2023-04-24T04:32:56;13.80;;;9.15;;
71202;SDS011;58929;47.490;19.090;2023-04-24T04:35:24;11.00;;;9.30;;
71202;SDS011;58929;47.490;19.090;2023-04-24T04:37:53;11.82;;;9.80;;
71202;SDS011;58929;47.490;19.090;2023-04-24T04:40:45;26.55;;;18.08;;
71202;SDS011;58929;47.490;19.090;2023-04-24T04:43:15;17.83;;;10.80;;
71202;SDS011;58929;47.490;19.090;2023-04-24T04:45:50;13.55;;;10.50;;
71202;SDS011;58929;47.490;19.090;2023-04-24T04:48:27;20.05;;;10.02;;
71202;SDS011;58929;47.490;19.090;2023-04-24T04:51:00;17.55;;;9.63;;
71202;SDS011;58929;47.490;19.090;2023-04-24T04:53:28;20.25;;;8.57;;
71202;SDS011;58929;47.490;19.090;2023-04-24T04:55:57;17.20;;;9.20;;
71202;SDS011;58929;47.490;19.090;2023-04-24T04:58:33;14.23;;;9.38;;
71202;SDS011;58929;47.490;19.090;2023-04-24T05:01:03;16.70;;;8.80;;
71202;SDS011;58929;47.490;19.090;2023-04-24T05:03:38;14.15;;;9.70;;
71202;SDS011;58929;47.490;19.090;2023-04-24T05:06:09;16.60;;;10.38;;
71202;SDS011;58929;47.490;19.090;2023-04-24T05:08:38;16.23;;;10.80;;
71202;SDS011;58929;47.490;19.090;2023-04-24T05:11:12;16.00;;;10.35;;
71202;SDS011;58929;47.490;19.090;2023-04-24T05:13:41;16.95;;;9.75;;
71202;SDS011;58929;47.490;19.090;2023-04-24T05:16:23;14.32;;;10.25;;
71202;SDS011;58929;47.490;19.090;2023-04-24T05:18:53;24.98;;;14.25;;
71202;SDS011;58929;47.490;19.090;2023-04-24T05:21:26;34.05;;;20.02;;
71202;SDS011;58929;47.490;19.090;2023-04-24T05:23:54;22.83;;;13.20;;
71202;SDS011;58929;47.490;19.090;2023-04-24T05:26:42;40.20;;;23.23;;
71202;SDS011;58929;47.490;19.090;2023-04-24T05:29:12;17.58;;;10.73;;
71202;SDS011;58929;47.490;19.090;2023-04-24T05:31:41;19.77;;;10.77;;
71202;SDS011;58929;47.490;19.090;2023-04-24T05:34:10;13.93;;;9.82;;
71202;SDS011;58929;47.490;19.090;2023-04-24T05:36:42;24.55;;;10.13;;
71202;SDS011;58929;47.490;19.090;2023-04-24T05:39:10;17.70;;;9.68;;
71202;SDS011;58929;47.490;19.090;2023-04-24T05:41:38;16.83;;;9.68;;
71202;SDS011;58929;47.490;19.090;2023-04-24T05:44:07;17.02;;;9.55;;
71202;SDS011;58929;47.490;19.090;2023-04-24T05:46:36;15.20;;;10.07;;
71202;SDS011;58929;47.490;19.090;2023-04-24T05:49:04;17.05;;;9.35;;
71202;SDS011;58929;47.490;19.090;2023-04-24T05:51:34;15.50;;;10.18;;
71202;SDS011;58929;47.490;19.090;2023-04-24T05:54:02;15.25;;;9.20;;
71202;SDS011;58929;47.490;19.090;2023-04-24T05:56:30;13.02;;;9.55;;
71202;SDS011;58929;47.490;19.090;2023-04-24T05:59:01;20.42;;;9.65;;
71202;SDS011;58929;47.490;19.090;2023-04-24T06:01:31;18.92;;;9.57;;
71202;SDS011;58929;47.490;19.090;2023-04-24T06:04:08;16.33;;;9.57;;
71202;SDS011;58929;47.490;19.090;2023-04-24T06:06:36;18.73;;;10.80;;
71202;SDS011;58929;47.490;19.090;2023-04-24T06:09:04;15.38;;;10.80;;
71202;SDS011;58929;47.490;19.090;2023-04-24T06:11:33;31.73;;;22.15;;
71202;SDS011;58929;47.490;19.090;2023-04-24T06:14:01;15.40;;;9.95;;
71202;SDS011;58929;47.490;19.090;2023-04-24T06:16:41;17.70;;;10.90;;
71202;SDS011;58929;47.490;19.090;2023-04-24T06:19:24;25.50;;;15.10;;
71202;SDS011;58929;47.490;19.090;2023-04-24T06:21:53;15.00;;;9.13;;
71202;SDS011;58929;47.490;19.090;2023-04-24T06:24:21;14.45;;;8.57;;
71202;SDS011;58929;47.490;19.090;2023-04-24T06:26:50;23.25;;;16.08;;
71202;SDS011;58929;47.490;19.090;2023-04-24T06:29:19;37.95;;;27.70;;
71202;SDS011;58929;47.490;19.090;2023-04-24T06:31:48;13.95;;;8.70;;
71202;SDS011;58929;47.490;19.090;2023-04-24T06:34:16;16.30;;;9.13;;
71202;SDS011;58929;47.490;19.090;2023-04-24T06:36:46;14.07;;;8.95;;
71202;SDS011;58929;47.490;19.090;2023-04-24T06:39:14;13.68;;;9.57;;
71202;SDS011;58929;47.490;19.090;2023-04-24T06:41:42;22.45;;;10.02;;
71202;SDS011;58929;47.490;19.090;2023-04-24T06:44:18;13.32;;;9.52;;
71202;SDS011;58929;47.490;19.090;2023-04-24T06:46:45;13.50;;;9.43;;
71202;SDS011;58929;47.490;19.090;2023-04-24T06:49:15;12.77;;;9.52;;
71202;SDS011;58929;47.490;19.090;2023-04-24T06:51:43;12.95;;;9.75;;
71202;SDS011;58929;47.490;19.090;2023-04-24T06:54:11;17.90;;;10.07;;
71202;SDS011;58929;47.490;19.090;2023-04-24T06:56:40;16.08;;;10.52;;
71202;SDS011;58929;47.490;19.090;2023-04-24T06:59:08;12.73;;;9.35;;
71202;SDS011;58929;47.490;19.090;2023-04-24T07:01:36;13.93;;;9.88;;
71202;SDS011;58929;47.490;19.090;2023-04-24T07:04:03;13.68;;;9.55;;
71202;SDS011;58929;47.490;19.090;2023-04-24T07:06:33;11.95;;;9.60;;
71202;SDS011;58929;47.490;19.090;2023-04-24T07:09:02;15.57;;;9.35;;
71202;SDS011;58929;47.490;19.090;2023-04-24T07:11:30;12.85;;;9.30;;
71202;SDS011;58929;47.490;19.090;2023-04-24T07:13:59;21.27;;;10.80;;
71202;SDS011;58929;47.490;19.090;2023-04-24T07:16:27;16.67;;;9.63;;
71202;SDS011;58929;47.490;19.090;2023-04-24T07:18:55;14.70;;;10.02;;
71202;SDS011;58929;47.490;19.090;2023-04-24T07:21:23;12.40;;;9.63;;
71202;SDS011;58929;47.490;19.090;2023-04-24T07:23:53;19.90;;;10.68;;
71202;SDS011;58929;47.490;19.090;2023-04-24T07:26:21;13.18;;;9.73;;
71202;SDS011;58929;47.490;19.090;2023-04-24T07:28:49;16.98;;;9.90;;
71202;SDS011;58929;47.490;19.090;2023-04-24T07:31:17;13.93;;;9.18;;
71202;SDS011;58929;47.490;19.090;2023-04-24T07:33:45;16.63;;;10.48;;
71202;SDS011;58929;47.490;19.090;2023-04-24T07:36:13;14.60;;;10.82;;
71202;SDS011;58929;47.490;19.090;2023-04-24T07:38:45;18.08;;;10.57;;
71202;SDS011;58929;47.490;19.090;2023-04-24T07:41:14;15.98;;;10.30;;
71202;SDS011;58929;47.490;19.090;2023-04-24T07:43:44;16.05;;;8.88;;
71202;SDS011;58929;47.490;19.090;2023-04-24T07:46:12;13.68;;;9.80;;
71202;SDS011;58929;47.490;19.090;2023-04-24T07:48:40;14.88;;;10.05;;
71202;SDS011;58929;47.490;19.090;2023-04-24T07:51:08;14.02;;;9.48;;
71202;SDS011;58929;47.490;19.090;2023-04-24T07:53:37;22.83;;;10.45;;
71202;SDS011;58929;47.490;19.090;2023-04-24T07:56:05;16.73;;;10.40;;
71202;SDS011;58929;47.490;19.090;2023-04-24T07:58:34;14.25;;;9.90;;
71202;SDS011;58929;47.490;19.090;2023-04-24T08:01:02;18.38;;;9.65;;
71202;SDS011;58929;47.490;19.090;2023-04-24T08:03:30;12.18;;;9.73;;
71202;SDS011;58929;47.490;19.090;2023-04-24T08:05:58;12.35;;;10.25;;
71202;SDS011;58929;47.490;19.090;2023-04-24T08:08:27;15.70;;;10.38;;
71202;SDS011;58929;47.490;19.090;2023-04-24T08:10:54;14.93;;;10.98;;
71202;SDS011;58929;47.490;19.090;2023-04-24T08:13:22;16.60;;;10.63;;
71202;SDS011;58929;47.490;19.090;2023-04-24T08:15:52;20.67;;;11.50;;
71202;SDS011;58929;47.490;19.090;2023-04-24T08:18:20;14.75;;;10.50;;
71202;SDS011;58929;47.490;19.090;2023-04-24T08:20:48;16.58;;;10.65;;
71202;SDS011;58929;47.490;19.090;2023-04-24T08:23:16;17.17;;;10.38;;
71202;SDS011;58929;47.490;19.090;2023-04-24T08:25:43;21.63;;;10.40;;
71202;SDS011;58929;47.490;19.090;2023-04-24T08:28:11;19.52;;;9.77;;
71202;SDS011;58929;47.490;19.090;2023-04-24T08:30:42;13.90;;;9.93;;
71202;SDS011;58929;47.490;19.090;2023-04-24T08:33:12;13.80;;;9.23;;
71202;SDS011;58929;47.490;19.090;2023-04-24T08:35:40;17.85;;;10.27;;
71202;SDS011;58929;47.490;19.090;2023-04-24T08:38:08;17.17;;;9.95;;
71202;SDS011;58929;47.490;19.090;2023-04-24T08:40:36;19.05;;;10.48;;
71202;SDS011;58929;47.490;19.090;2023-04-24T08:43:04;16.20;;;10.27;;
71202;SDS011;58929;47.490;19.090;2023-04-24T08:45:32;15.68;;;10.65;;
71202;SDS011;58929;47.490;19.090;2023-04-24T08:48:00;14.48;;;9.27;;
71202;SDS011;58929;47.490;19.090;2023-04-24T08:50:31;14.18;;;9.45;;
71202;SDS011;58929;47.490;19.090;2023-04-24T08:53:00;14.77;;;9.63;;
71202;SDS011;58929;47.490;19.090;2023-04-24T08:55:30;15.20;;;10.48;;
71202;SDS011;58929;47.490;19.090;2023-04-24T08:57:59;18.20;;;11.10;;
71202;SDS011;58929;47.490;19.090;2023-04-24T09:00:27;12.55;;;9.57;;
71202;SDS011;58929;47.490;19.090;2023-04-24T09:02:55;15.13;;;9.43;;
71202;SDS011;58929;47.490;19.090;2023-04-24T09:05:23;17.58;;;10.57;;
71202;SDS011;58929;47.490;19.090;2023-04-24T09:07:56;13.35;;;10.02;;
71202;SDS011;58929;47.490;19.090;2023-04-24T09:10:24;14.80;;;9.70;;
71202;SDS011;58929;47.490;19.090;2023-04-24T09:12:52;11.25;;;9.35;;
71202;SDS011;58929;47.490;19.090;2023-04-24T09:15:21;12.60;;;8.77;;
71202;SDS011;58929;47.490;19.090;2023-04-24T09:17:50;16.00;;;8.82;;
71202;SDS011;58929;47.490;19.090;2023-04-24T09:20:18;15.45;;;8.27;;
71202;SDS011;58929;47.490;19.090;2023-04-24T09:22:46;10.75;;;8.07;;
71202;SDS011;58929;47.490;19.090;2023-04-24T09:25:16;14.85;;;8.60;;
71202;SDS011;58929;47.490;19.090;2023-04-24T09:27:44;10.27;;;7.30;;
71202;SDS011;58929;47.490;19.090;2023-04-24T09:30:13;15.13;;;8.13;;
71202;SDS011;58929;47.490;19.090;2023-04-24T09:32:41;11.10;;;7.80;;
71202;SDS011;58929;47.490;19.090;2023-04-24T09:35:10;15.43;;;7.95;;
71202;SDS011;58929;47.490;19.090;2023-04-24T09:37:39;15.65;;;7.85;;
71202;SDS011;58929;47.490;19.090;2023-04-24T09:40:11;8.60;;;7.28;;
71202;SDS011;58929;47.490;19.090;2023-04-24T09:42:41;15.45;;;7.90;;
71202;SDS011;58929;47.490;19.090;2023-04-24T09:45:10;11.20;;;8.20;;
71202;SDS011;58929;47.490;19.090;2023-04-24T09:47:41;13.70;;;7.57;;
71202;SDS011;58929;47.490;19.090;2023-04-24T09:50:10;9.20;;;7.25;;
71202;SDS011;58929;47.490;19.090;2023-04-24T09:52:42;13.82;;;7.10;;
71202;SDS011;58929;47.490;19.090;2023-04-24T09:55:11;10.27;;;7.63;;
71202;SDS011;58929;47.490;19.090;2023-04-24T09:57:48;10.32;;;7.57;;
71202;SDS011;58929;47.490;19.090;2023-04-24T10:00:23;15.50;;;7.70;;
71202;SDS011;58929;47.490;19.090;2023-04-24T10:02:55;9.52;;;6.20;;
71202;SDS011;58929;47.490;19.090;2023-04-24T10:05:24;10.48;;;6.75;;
71202;SDS011;58929;47.490;19.090;2023-04-24T10:07:55;12.35;;;7.18;;
71202;SDS011;58929;47.490;19.090;2023-04-24T10:10:23;9.93;;;6.63;;
71202;SDS011;58929;47.490;19.090;2023-04-24T10:12:53;17.45;;;5.65;;
71202;SDS011;58929;47.490;19.090;2023-04-24T10:15:22;13.68;;;7.50;;
71202;SDS011;58929;47.490;19.090;2023-04-24T10:17:51;12.38;;;6.10;;
71202;SDS011;58929;47.490;19.090;2023-04-24T10:20:20;10.15;;;5.63;;
71202;SDS011;58929;47.490;19.090;2023-04-24T10:22:49;13.13;;;6.97;;
71202;SDS011;58929;47.490;19.090;2023-04-24T10:25:20;16.73;;;8.00;;
71202;SDS011;58929;47.490;19.090;2023-04-24T10:27:49;10.73;;;7.60;;
71202;SDS011;58929;47.490;19.090;2023-04-24T10:30:19;15.60;;;7.20;;
71202;SDS011;58929;47.490;19.090;2023-04-24T10:32:47;16.45;;;7.20;;
71202;SDS011;58929;47.490;19.090;2023-04-24T10:35:15;9.32;;;6.95;;
71202;SDS011;58929;47.490;19.090;2023-04-24T10:37:44;15.98;;;8.10;;
71202;SDS011;58929;47.490;19.090;2023-04-24T10:40:16;16.58;;;8.73;;
71202;SDS011;58929;47.490;19.090;2023-04-24T10:42:46;13.05;;;8.18;;
71202;SDS011;58929;47.490;19.090;2023-04-24T10:45:19;15.60;;;7.97;;
71202;SDS011;58929;47.490;19.090;2023-04-24T10:47:52;13.80;;;8.65;;
71202;SDS011;58929;47.490;19.090;2023-04-24T10:50:20;13.70;;;8.50;;
71202;SDS011;58929;47.490;19.090;2023-04-24T10:52:48;14.85;;;9.25;;
71202;SDS011;58929;47.490;19.090;2023-04-24T10:55:29;11.65;;;8.48;;
71202;SDS011;58929;47.490;19.090;2023-04-24T11:00:37;15.35;;;9.65;;
71202;SDS011;58929;47.490;19.090;2023-04-24T11:03:06;13.30;;;10.35;;
71202;SDS011;58929;47.490;19.090;2023-04-24T11:05:55;17.23;;;10.20;;
71202;SDS011;58929;47.490;19.090;2023-04-24T11:08:25;24.45;;;10.10;;
71202;SDS011;58929;47.490;19.090;2023-04-24T11:10:57;13.45;;;9.80;;
71202;SDS011;58929;47.490;19.090;2023-04-24T11:13:26;14.20;;;9.80;;
71202;SDS011;58929;47.490;19.090;2023-04-24T11:16:15;14.85;;;9.73;;
71202;SDS011;58929;47.490;19.090;2023-04-24T11:18:43;14.02;;;9.65;;
71202;SDS011;58929;47.490;19.090;2023-04-24T11:21:17;21.60;;;9.52;;
71202;SDS011;58929;47.490;19.090;2023-04-24T11:23:45;12.88;;;9.02;;
71202;SDS011;58929;47.490;19.090;2023-04-24T11:26:17;15.75;;;9.00;;
71202;SDS011;58929;47.490;19.090;2023-04-24T11:28:48;15.07;;;9.07;;
71202;SDS011;58929;47.490;19.090;2023-04-24T11:34:17;21.02;;;10.70;;
71202;SDS011;58929;47.490;19.090;2023-04-24T11:36:45;14.65;;;9.13;;
71202;SDS011;58929;47.490;19.090;2023-04-24T11:39:13;13.00;;;9.50;;
71202;SDS011;58929;47.490;19.090;2023-04-24T11:41:42;11.63;;;9.20;;
71202;SDS011;58929;47.490;19.090;2023-04-24T11:44:10;12.43;;;9.88;;
71202;SDS011;58929;47.490;19.090;2023-04-24T11:46:38;16.73;;;10.95;;
71202;SDS011;58929;47.490;19.090;2023-04-24T11:49:07;14.32;;;10.43;;
71202;SDS011;58929;47.490;19.090;2023-04-24T11:51:36;12.18;;;9.43;;
71202;SDS011;58929;47.490;19.090;2023-04-24T11:54:18;15.50;;;9.63;;
71202;SDS011;58929;47.490;19.090;2023-04-24T11:56:46;13.98;;;10.23;;
71202;SDS011;58929;47.490;19.090;2023-04-24T11:59:15;15.48;;;11.25;;
71202;SDS011;58929;47.490;19.090;2023-04-24T12:01:43;15.57;;;10.27;;
71202;SDS011;58929;47.490;19.090;2023-04-24T12:04:11;17.58;;;11.00;;
71202;SDS011;58929;47.490;19.090;2023-04-24T12:06:41;31.45;;;11.18;;
71202;SDS011;58929;47.490;19.090;2023-04-24T12:09:26;18.95;;;11.30;;
71202;SDS011;58929;47.490;19.090;2023-04-24T12:11:54;25.27;;;11.27;;
71202;SDS011;58929;47.490;19.090;2023-04-24T12:14:23;29.70;;;11.25;;
71202;SDS011;58929;47.490;19.090;2023-04-24T12:16:51;18.20;;;10.38;;
71202;SDS011;58929;47.490;19.090;2023-04-24T12:19:20;15.45;;;9.48;;
71202;SDS011;58929;47.490;19.090;2023-04-24T12:22:00;13.07;;;8.27;;
71202;SDS011;58929;47.490;19.090;2023-04-24T12:24:28;9.77;;;6.85;;
71202;SDS011;58929;47.490;19.090;2023-04-24T12:26:57;19.77;;;9.48;;
71202;SDS011;58929;47.490;19.090;2023-04-24T12:29:25;16.00;;;10.30;;
71202;SDS011;58929;47.490;19.090;2023-04-24T12:31:53;15.52;;;9.27;;
71202;SDS011;58929;47.490;19.090;2023-04-24T12:34:22;19.05;;;10.25;;
71202;SDS011;58929;47.490;19.090;2023-04-24T12:36:51;19.50;;;10.73;;
71202;SDS011;58929;47.490;19.090;2023-04-24T12:39:20;14.35;;;9.98;;
71202;SDS011;58929;47.490;19.090;2023-04-24T12:41:54;16.13;;;9.45;;
71202;SDS011;58929;47.490;19.090;2023-04-24T12:44:29;13.60;;;8.52;;
71202;SDS011;58929;47.490;19.090;2023-04-24T12:46:58;13.32;;;8.85;;
71202;SDS011;58929;47.490;19.090;2023-04-24T12:49:26;19.10;;;9.93;;
71202;SDS011;58929;47.490;19.090;2023-04-24T12:51:54;16.33;;;8.40;;
71202;SDS011;58929;47.490;19.090;2023-04-24T12:54:23;12.00;;;8.35;;
71202;SDS011;58929;47.490;19.090;2023-04-24T12:56:51;19.75;;;7.95;;
71202;SDS011;58929;47.490;19.090;2023-04-24T12:59:19;12.10;;;7.93;;
71202;SDS011;58929;47.490;19.090;2023-04-24T13:01:47;13.05;;;7.18;;
71202;SDS011;58929;47.490;19.090;2023-04-24T13:04:15;13.57;;;6.90;;
71202;SDS011;58929;47.490;19.090;2023-04-24T13:06:43;15.80;;;7.38;;
71202;SDS011;58929;47.490;19.090;2023-04-24T13:09:11;14.73;;;7.03;;
71202;SDS011;58929;47.490;19.090;2023-04-24T13:11:41;13.60;;;6.60;;
71202;SDS011;58929;47.490;19.090;2023-04-24T13:14:09;21.05;;;5.88;;
71202;SDS011;58929;47.490;19.090;2023-04-24T13:16:37;19.17;;;7.05;;
71202;SDS011;58929;47.490;19.090;2023-04-24T13:19:05;10.00;;;5.85;;
71202;SDS011;58929;47.490;19.090;2023-04-24T13:21:33;18.70;;;5.63;;
71202;SDS011;58929;47.490;19.090;2023-04-24T13:24:00;9.80;;;4.38;;
71202;SDS011;58929;47.490;19.090;2023-04-24T13:26:31;11.57;;;4.80;;
71202;SDS011;58929;47.490;19.090;2023-04-24T13:29:00;9.20;;;5.45;;
71202;SDS011;58929;47.490;19.090;2023-04-24T13:31:28;10.02;;;5.53;;
71202;SDS011;58929;47.490;19.090;2023-04-24T13:33:57;14.73;;;5.22;;
71202;SDS011;58929;47.490;19.090;2023-04-24T13:36:25;11.82;;;5.53;;
71202;SDS011;58929;47.490;19.090;2023-04-24T13:38:53;10.05;;;4.70;;
71202;SDS011;58929;47.490;19.090;2023-04-24T13:41:21;8.43;;;5.32;;
71202;SDS011;58929;47.490;19.090;2023-04-24T13:43:49;11.40;;;5.43;;
71202;SDS011;58929;47.490;19.090;2023-04-24T13:46:18;14.55;;;5.80;;
71202;SDS011;58929;47.490;19.090;2023-04-24T13:48:49;14.68;;;4.78;;
71202;SDS011;58929;47.490;19.090;2023-04-24T13:51:17;14.63;;;4.88;;
71202;SDS011;58929;47.490;19.090;2023-04-24T13:53:45;19.20;;;5.60;;
71202;SDS011;58929;47.490;19.090;2023-04-24T13:56:13;7.57;;;4.68;;
71202;SDS011;58929;47.490;19.090;2023-04-24T13:58:41;9.35;;;4.35;;
71202;SDS011;58929;47.490;19.090;2023-04-24T14:01:09;19.08;;;5.30;;
71202;SDS011;58929;47.490;19.090;2023-04-24T14:03:39;14.52;;;4.97;;
71202;SDS011;58929;47.490;19.090;2023-04-24T14:06:07;10.80;;;5.07;;
71202;SDS011;58929;47.490;19.090;2023-04-24T14:08:35;8.30;;;5.82;;
71202;SDS011;58929;47.490;19.090;2023-04-24T14:11:03;10.30;;;5.80;;
71202;SDS011;58929;47.490;19.090;2023-04-24T14:13:32;15.98;;;9.73;;
71202;SDS011;58929;47.490;19.090;2023-04-24T14:16:00;8.25;;;5.55;;
71202;SDS011;58929;47.490;19.090;2023-04-24T14:18:28;10.77;;;5.00;;
71202;SDS011;58929;47.490;19.090;2023-04-24T14:20:57;9.65;;;6.75;;
71202;SDS011;58929;47.490;19.090;2023-04-24T14:23:25;12.40;;;5.63;;
71202;SDS011;58929;47.490;19.090;2023-04-24T14:25:53;7.63;;;4.78;;
71202;SDS011;58929;47.490;19.090;2023-04-24T14:28:21;8.50;;;6.03;;
71202;SDS011;58929;47.490;19.090;2023-04-24T14:30:49;6.97;;;5.32;;
71202;SDS011;58929;47.490;19.090;2023-04-24T14:33:17;7.57;;;5.35;;
71202;SDS011;58929;47.490;19.090;2023-04-24T14:35:45;10.93;;;5.80;;
71202;SDS011;58929;47.490;19.090;2023-04-24T14:38:15;8.13;;;5.18;;